LFLS/GNB METAR and TAF weather

Enter ICAO airport designator
Station Type Date Time Source
LFLS METAR 2019/04/20 18:00 UTC NOAA

LFLS 201800Z AUTO 34005KT CAVOK 18/06 Q1020 TEMPO FEW065TCU


Station Type Date Time Source
LFLS Decoded METAR 2019/04/20 18:00 UTC NOAA

Grenoble / St. Geoirs, France (LFLS) 45-22N 005-20E 386M
Apr 20, 2019 - 02:00 PM EDT / 2019.04.20 1800 UTC
Wind: from the NNW (340 degrees) at 6 MPH (5 KT):0
Visibility: greater than 7 mile(s):0
Weather: Towering cumulus clouds observed
Temperature: 64 F (18 C)
Dew Point: 42 F (6 C)
Relative Humidity: 45%
Pressure (altimeter): 30.12 in. Hg (1020 hPa)
ob: LFLS 201800Z AUTO 34005KT CAVOK 18/06 Q1020 TEMPO FEW065TCU
cycle: 18

Station Type Date Time Source
LFLS TAF 2019/04/20 15:26 UTC NOAA

TAF LFLS 201400Z 2015/2115 VRB03KT CAVOK
TEMPO 2015/2017 04005KT PROB30 2015/2021 FEW065TCU
BECMG 2101/2103 09005KT
BECMG 2110/2112 VRB05KT

Example: see airport list